Time;durP1;ratioP1;P1;durP2;ratioP2;P2;SDS_P1;SDS_P2;PMS_P1;PMS_P2;Temp;Humidity;BMP_temperature;BMP_pressure;BME280_temperature;BME280_humidity;BME280_pressure;Samples;Min_cycle;Max_cycle;Signal;HPM_P1;HPM_P2
2023/10/04 00:03:00;;;;;;;10.73;5.60;;;;;;;12.50;79.00;98896.91;4786090;29;20054;-73
2023/10/04 00:05:26;;;;;;;12.75;6.03;;;;;;;12.49;80.70;98883.69;4771774;29;20058;-72
2023/10/04 00:07:53;;;;;;;10.95;6.25;;;;;;;12.45;81.26;98867.06;4778405;29;20061;-71
2023/10/04 00:10:23;;;;;;;11.82;6.10;;;;;;;12.43;81.66;98879.72;4785941;29;20038;-70
2023/10/04 00:12:49;;;;;;;10.77;5.50;;;;;;;12.41;81.26;98871.03;4785765;29;20443;-74
2023/10/04 00:15:14;;;;;;;9.27;5.78;;;;;;;12.38;81.65;98886.50;4785858;29;20050;-72
2023/10/04 00:17:44;;;;;;;10.38;5.90;;;;;;;12.42;81.47;98867.34;4785080;29;20050;-73
2023/10/04 00:20:14;;;;;;;10.00;5.65;;;;;;;12.35;81.46;98867.06;4784808;29;20062;-72
2023/10/04 00:22:40;;;;;;;11.75;7.00;;;;;;;12.31;81.87;98878.16;4785555;29;20054;-74
2023/10/04 00:25:16;;;;;;;9.88;5.60;;;;;;;12.36;81.90;98867.91;4768941;29;20062;-74
2023/10/04 00:27:43;;;;;;;13.57;6.43;;;;;;;12.28;83.29;98863.28;4785015;29;20411;-72
2023/10/04 00:30:12;;;;;;;13.25;5.95;;;;;;;12.35;82.55;98866.22;4785874;29;20144;-74
2023/10/04 00:32:38;;;;;;;13.05;6.40;;;;;;;12.31;82.16;98860.28;4785153;29;20159;-73
2023/10/04 00:35:15;;;;;;;12.73;6.53;;;;;;;12.27;83.58;98855.38;4783910;29;20050;-75
2023/10/04 00:37:46;;;;;;;11.32;5.25;;;;;;;12.27;83.60;98858.06;4779600;29;20549;-71
2023/10/04 00:40:18;;;;;;;12.93;6.22;;;;;;;12.25;84.01;98852.00;4828888;29;20064;-70
2023/10/04 00:42:49;;;;;;;11.48;5.90;;;;;;;12.24;83.29;98853.84;4844173;29;20049;-72
2023/10/04 00:45:15;;;;;;;14.27;6.50;;;;;;;12.19;83.59;98839.22;4859733;29;20075;-71
2023/10/04 00:47:43;;;;;;;10.52;6.03;;;;;;;12.14;84.29;98862.81;4859648;29;20055;-72
2023/10/04 00:50:22;;;;;;;15.45;6.93;;;;;;;12.21;83.98;98834.56;4860810;29;20044;-71
2023/10/04 00:52:52;;;;;;;13.40;6.22;;;;;;;12.16;84.41;98835.00;4843810;29;20052;-75
2023/10/04 00:55:19;;;;;;;10.73;6.40;;;;;;;12.13;84.12;98824.56;4860173;29;20774;-71
2023/10/04 00:57:48;;;;;;;12.98;6.85;;;;;;;12.07;84.63;98824.28;4859891;29;20048;-74
2023/10/04 01:00:14;;;;;;;11.75;6.18;;;;;;;12.06;85.20;98844.81;4858517;29;20045;-75
2023/10/04 01:02:39;;;;;;;15.50;6.90;;;;;;;12.10;85.45;98813.31;4861291;29;20044;-71
2023/10/04 01:05:06;;;;;;;14.73;6.22;;;;;;;12.08;84.94;98809.94;4844229;29;20056;-71
2023/10/04 01:07:31;;;;;;;12.32;6.28;;;;;;;12.01;85.83;98820.34;4859732;29;20045;-72
2023/10/04 01:09:58;;;;;;;13.50;7.13;;;;;;;12.00;86.02;98814.16;4860790;29;20447;-70
2023/10/04 01:12:24;;;;;;;15.05;6.82;;;;;;;12.00;86.58;98810.63;4859650;29;20052;-73
2023/10/04 01:14:53;;;;;;;14.52;6.57;;;;;;;11.98;86.48;98821.44;4859714;29;20057;-70
2023/10/04 01:17:18;;;;;;;15.85;7.53;;;;;;;11.93;87.18;98804.16;4859756;29;20064;-73
2023/10/04 01:19:44;;;;;;;14.48;7.80;;;;;;;11.89;88.54;98774.22;4859582;29;20060;-72
2023/10/04 01:22:09;;;;;;;12.10;6.72;;;;;;;11.91;88.44;98796.28;4858930;29;20053;-70
2023/10/04 01:24:38;;;;;;;14.27;7.07;;;;;;;11.91;87.90;98809.66;4857163;29;20052;-69
2023/10/04 01:27:03;;;;;;;12.13;6.25;;;;;;;11.86;88.56;98800.34;4860676;29;20051;-68
2023/10/04 01:29:29;;;;;;;16.05;7.78;;;;;;;11.89;88.64;98790.25;4843484;29;20067;-68
2023/10/04 01:31:54;;;;;;;14.80;6.13;;;;;;;11.92;87.86;98789.13;4860884;29;20045;-70
2023/10/04 01:34:20;;;;;;;16.00;6.47;;;;;;;11.85;88.80;98788.00;4860896;29;20049;-70
2023/10/04 01:36:46;;;;;;;13.23;6.60;;;;;;;11.87;89.11;98781.50;4843227;29;20053;-70
2023/10/04 01:39:18;;;;;;;9.07;6.20;;;;;;;11.91;88.26;98777.59;4859471;29;20056;-72
2023/10/04 01:41:44;;;;;;;11.00;6.60;;;;;;;11.95;88.17;98771.00;4843419;29;20052;-70
2023/10/04 01:44:10;;;;;;;9.52;5.72;;;;;;;11.87;88.29;98781.50;4860783;29;20055;-71
2023/10/04 01:46:37;;;;;;;16.13;7.70;;;;;;;11.84;89.07;98763.13;4861462;29;20044;-69
2023/10/04 01:49:03;;;;;;;17.08;7.43;;;;;;;11.83;88.44;98764.09;4846224;29;21591;-68
2023/10/04 01:51:29;;;;;;;13.27;6.68;;;;;;;11.82;89.19;98741.03;4846829;29;20048;-70
2023/10/04 01:53:56;;;;;;;18.10;8.10;;;;;;;11.93;86.94;98748.91;4861681;29;20424;-67
2023/10/04 01:56:22;;;;;;;10.95;5.93;;;;;;;11.94;87.60;98739.94;4877440;29;20044;-70
2023/10/04 01:58:48;;;;;;;12.95;6.75;;;;;;;11.84;88.80;98739.09;4860039;29;20061;-67
2023/10/04 02:01:13;;;;;;;14.23;6.57;;;;;;;11.78;89.75;98749.47;4859669;29;20423;-69
2023/10/04 02:03:39;;;;;;;12.60;7.20;;;;;;;11.80;90.32;98742.16;4849305;29;20134;-70
2023/10/04 02:06:06;;;;;;;13.15;7.55;;;;;;;11.78;90.89;98749.47;4864749;29;20051;-71
2023/10/04 02:08:32;;;;;;;15.27;7.22;;;;;;;11.79;90.32;98730.63;4837167;29;20381;-68
2023/10/04 02:10:57;;;;;;;14.27;7.60;;;;;;;11.79;89.99;98740.47;4847630;29;20053;-68
2023/10/04 02:13:25;;;;;;;13.75;8.57;;;;;;;11.77;90.76;98743.28;4864059;29;20118;-70
2023/10/04 02:15:57;;;;;;;12.63;7.78;;;;;;;11.79;89.77;98727.13;4845690;29;20133;-69
2023/10/04 02:18:22;;;;;;;11.88;7.18;;;;;;;11.75;90.58;98723.00;4863417;29;20060;-69
2023/10/04 02:20:53;;;;;;;14.85;6.65;;;;;;;11.78;89.94;98728.94;4862126;29;20063;-68
2023/10/04 02:23:19;;;;;;;15.98;6.68;;;;;;;11.78;89.42;98712.06;4862528;29;20048;-67
2023/10/04 02:25:46;;;;;;;13.68;5.32;;;;;;;11.81;89.38;98718.00;4846599;29;20064;-68
2023/10/04 02:28:11;;;;;;;10.45;6.35;;;;;;;11.77;89.23;98721.06;4846196;29;20420;-70
2023/10/04 02:30:38;;;;;;;11.52;6.93;;;;;;;11.69;89.81;98708.38;4842898;29;20056;-70
2023/10/04 02:33:13;;;;;;;17.17;7.70;;;;;;;11.64;91.14;98721.31;4853604;29;20040;-71
2023/10/04 02:35:44;;;;;;;12.30;6.88;;;;;;;11.70;90.68;98704.75;4861779;29;20052;-68
2023/10/04 02:38:23;;;;;;;11.05;6.13;;;;;;;11.75;90.56;98694.50;4856947;29;20061;-70
2023/10/04 02:40:52;;;;;;;12.55;7.30;;;;;;;11.69;90.52;98692.38;4861653;29;20420;-70
2023/10/04 02:43:20;;;;;;;10.02;6.68;;;;;;;11.69;90.78;98657.66;4845046;29;20504;-70
2023/10/04 02:45:47;;;;;;;13.02;6.03;;;;;;;11.70;90.44;98679.88;4861768;29;20381;-69
2023/10/04 02:48:13;;;;;;;13.07;6.78;;;;;;;11.64;90.78;98705.28;4861184;29;20041;-70
2023/10/04 02:50:41;;;;;;;17.10;8.30;;;;;;;11.68;91.30;98674.66;4862395;29;20055;-72
2023/10/04 02:53:16;;;;;;;16.10;7.43;;;;;;;11.70;91.07;98655.84;4828105;29;20488;-69
2023/10/04 02:55:42;;;;;;;9.70;5.93;;;;;;;11.82;90.20;98665.44;4845189;29;20052;-70
2023/10/04 02:58:10;;;;;;;13.05;6.75;;;;;;;11.80;89.58;98673.56;4861486;29;20056;-69
2023/10/04 03:00:42;;;;;;;10.70;6.47;;;;;;;11.82;89.56;98676.94;4862050;29;20055;-68
2023/10/04 03:03:08;;;;;;;18.65;7.40;;;;;;;11.80;89.35;98668.22;4845558;29;20051;-70
2023/10/04 03:05:34;;;;;;;13.32;7.63;;;;;;;11.88;88.55;98660.34;4861217;29;20044;-70
2023/10/04 03:08:06;;;;;;;22.08;7.55;;;;;;;11.83;88.85;98657.28;4861038;29;20119;-69
2023/10/04 03:10:37;;;;;;;15.05;7.30;;;;;;;11.87;88.77;98657.81;4860719;29;20059;-71
2023/10/04 03:13:12;;;;;;;10.75;6.60;;;;;;;11.93;88.45;98649.25;4860569;29;20056;-71
2023/10/04 03:15:43;;;;;;;;;;;;;;;11.96;88.35;98643.63;4850241;29;20492;-68
2023/10/04 03:18:17;;;;;;;10.50;6.20;;;;;;;11.86;88.40;98643.63;4844292;29;19927;-69
2023/10/04 03:20:48;;;;;;;15.43;6.90;;;;;;;11.79;88.65;98634.50;4860959;29;20052;-72
2023/10/04 03:23:18;;;;;;;12.63;6.70;;;;;;;11.80;89.00;98646.03;4861050;29;20048;-70
2023/10/04 03:25:47;;;;;;;16.35;7.75;;;;;;;11.80;88.52;98646.88;4860303;29;20571;-72
2023/10/04 03:28:14;;;;;;;19.98;7.05;;;;;;;11.81;89.11;98639.72;4861151;29;20044;-73
2023/10/04 03:30:44;;;;;;;12.25;6.72;;;;;;;11.82;88.52;98649.41;4861209;29;20055;-73
2023/10/04 03:33:10;;;;;;;12.40;6.82;;;;;;;11.76;89.37;98650.78;4860795;29;20059;-74
2023/10/04 03:35:39;;;;;;;12.35;7.72;;;;;;;11.74;89.76;98657.25;4845590;29;20428;-72
2023/10/04 03:38:06;;;;;;;14.73;6.63;;;;;;;11.80;89.14;98630.84;4858938;29;20552;-66
2023/10/04 03:40:35;;;;;;;15.07;6.82;;;;;;;11.82;88.16;98625.38;4860719;29;20540;-68
2023/10/04 03:43:06;;;;;;;14.38;7.25;;;;;;;11.81;87.66;98611.19;4862438;29;20056;-69
2023/10/04 03:45:32;;;;;;;12.35;7.13;;;;;;;11.77;88.81;98620.44;4861237;29;20041;-69
2023/10/04 03:47:58;;;;;;;11.43;6.53;;;;;;;11.76;88.74;98624.09;4844990;29;20063;-67
2023/10/04 03:50:24;;;;;;;13.13;7.82;;;;;;;11.83;87.81;98605.69;4829091;29;20044;-67
2023/10/04 03:52:51;;;;;;;14.88;7.10;;;;;;;11.81;88.14;98632.53;4861596;29;20044;-69
2023/10/04 03:55:17;;;;;;;12.73;7.30;;;;;;;11.84;88.61;98610.06;4844675;29;20067;-68
2023/10/04 03:57:44;;;;;;;11.23;6.90;;;;;;;11.86;87.71;98608.06;4860102;29;20067;-69
2023/10/04 04:00:17;;;;;;;14.55;8.30;;;;;;;11.89;87.26;98618.47;4860464;29;20071;-68
2023/10/04 04:02:44;;;;;;;15.50;7.78;;;;;;;11.83;88.01;98616.38;4844600;29;20060;-67
2023/10/04 04:05:11;;;;;;;14.52;6.88;;;;;;;11.90;87.30;98599.63;4860168;29;20067;-68
2023/10/04 04:07:36;;;;;;;15.50;7.40;;;;;;;11.90;87.49;98610.31;4844036;29;20405;-69
2023/10/04 04:10:03;;;;;;;14.93;7.70;;;;;;;11.93;87.07;98610.03;4860184;29;20385;-69
2023/10/04 04:12:30;;;;;;;14.10;7.18;;;;;;;11.98;86.54;98617.59;4861161;29;20048;-69
2023/10/04 04:14:55;;;;;;;17.27;7.03;;;;;;;12.02;85.95;98607.47;4860095;29;20049;-69
2023/10/04 04:17:22;;;;;;;12.27;7.05;;;;;;;12.04;85.88;98601.00;4859845;29;20059;-69
2023/10/04 04:19:49;;;;;;;13.98;6.97;;;;;;;12.07;86.02;98590.03;4859963;29;20048;-69
2023/10/04 04:22:17;;;;;;;9.90;6.03;;;;;;;12.10;85.30;98611.09;4861263;29;20126;-70
2023/10/04 04:24:43;;;;;;;14.90;7.28;;;;;;;12.11;84.99;98574.56;4860028;29;20052;-69
2023/10/04 04:27:08;;;;;;;13.57;6.95;;;;;;;12.18;84.61;98586.34;4859889;29;20041;-72
2023/10/04 04:29:35;;;;;;;9.93;5.65;;;;;;;12.35;84.16;98588.25;4860017;29;20048;-69
2023/10/04 04:32:02;;;;;;;18.48;6.70;;;;;;;12.31;83.25;98598.38;4859906;29;20529;-68
2023/10/04 04:34:29;;;;;;;16.65;8.63;;;;;;;12.35;82.71;98573.06;4844136;29;20056;-69
2023/10/04 04:36:55;;;;;;;13.65;7.40;;;;;;;12.32;82.49;98569.84;4843957;29;20060;-70
2023/10/04 04:39:21;;;;;;;14.68;7.50;;;;;;;12.30;82.78;98580.66;4859939;29;20393;-69
2023/10/04 04:41:51;;;;;;;20.98;7.28;;;;;;;12.32;82.58;98569.84;4859791;29;20056;-69
2023/10/04 04:44:23;;;;;;;13.70;7.10;;;;;;;12.36;82.27;98541.84;4859801;29;20075;-70
2023/10/04 04:46:51;;;;;;;17.77;7.45;;;;;;;12.46;82.23;98563.16;4843946;29;20123;-68
2023/10/04 04:49:17;;;;;;;17.75;7.57;;;;;;;12.53;82.04;98561.56;4859507;29;20500;-71
2023/10/04 04:51:44;;;;;;;15.80;7.68;;;;;;;12.60;81.46;98554.66;4859720;29;20052;-72
2023/10/04 04:54:10;;;;;;;15.02;7.85;;;;;;;12.80;80.85;98566.94;4859577;29;20052;-71
2023/10/04 04:56:36;;;;;;;18.60;7.57;;;;;;;12.92;79.38;98586.28;4843626;29;20059;-71
2023/10/04 04:59:09;;;;;;;10.95;7.25;;;;;;;13.03;78.27;98551.28;4859637;29;20074;-71
2023/10/04 05:01:38;;;;;;;14.70;8.43;;;;;;;13.31;77.18;98565.50;4843538;29;20052;-71
2023/10/04 05:04:06;;;;;;;17.60;8.40;;;;;;;13.36;76.33;98549.81;4859627;29;20048;-71
2023/10/04 05:06:32;;;;;;;14.10;7.30;;;;;;;13.37;75.74;98544.28;4843634;29;20432;-70
2023/10/04 05:08:58;;;;;;;19.25;8.50;;;;;;;13.35;75.00;98545.44;4843802;29;20057;-71
2023/10/04 05:11:26;;;;;;;17.45;7.65;;;;;;;13.48;74.69;98545.06;4859113;29;20052;-70
2023/10/04 05:13:56;;;;;;;9.70;6.55;;;;;;;13.62;74.38;98541.81;4859432;29;20416;-71
2023/10/04 05:16:21;;;;;;;14.65;8.10;;;;;;;13.75;73.50;98531.56;4843681;29;20080;-71
2023/10/04 05:18:46;;;;;;;14.60;7.78;;;;;;;13.87;73.03;98530.31;4861969;29;20535;-74
2023/10/04 05:21:12;;;;;;;13.57;7.10;;;;;;;14.10;71.90;98531.44;4847381;29;20072;-75
2023/10/04 05:23:38;;;;;;;15.02;8.93;;;;;;;14.12;70.97;98534.78;4863092;29;20067;-75
2023/10/04 05:26:04;;;;;;;12.82;7.35;;;;;;;14.11;70.42;98526.91;4847181;29;20063;-74
2023/10/04 05:28:29;;;;;;;14.75;7.72;;;;;;;14.28;70.38;98517.13;4846865;29;20044;-72
2023/10/04 05:30:55;;;;;;;13.75;7.20;;;;;;;14.45;69.86;98513.53;4864146;29;20064;-71
2023/10/04 05:33:21;;;;;;;14.90;6.68;;;;;;;14.74;68.01;98524.72;4864263;29;20057;-71
2023/10/04 05:35:52;;;;;;;14.85;7.43;;;;;;;15.20;67.21;98520.63;4863896;29;20048;-74
2023/10/04 05:38:18;;;;;;;15.77;6.97;;;;;;;15.68;65.30;98502.03;4847244;29;20060;-76
2023/10/04 05:40:46;;;;;;;12.80;6.93;;;;;;;16.06;63.83;98495.88;4864061;29;20052;-75
2023/10/04 05:43:12;;;;;;;20.98;9.02;;;;;;;16.41;62.13;98474.91;4863772;29;20044;-70
2023/10/04 05:45:37;;;;;;;12.85;7.45;;;;;;;16.70;60.43;98477.84;4862861;29;20052;-70
2023/10/04 05:48:05;;;;;;;12.95;6.35;;;;;;;16.86;59.35;98461.59;4846912;29;20452;-70
2023/10/04 05:50:34;;;;;;;17.10;7.75;;;;;;;16.94;58.35;98437.28;4862732;29;20531;-71
2023/10/04 05:53:01;;;;;;;13.38;7.72;;;;;;;17.12;59.15;98476.56;4862061;29;20048;-71
2023/10/04 05:55:27;;;;;;;14.70;7.65;;;;;;;16.99;57.88;98459.16;4846655;29;20550;-68
2023/10/04 05:57:52;;;;;;;14.77;7.07;;;;;;;16.93;58.71;98465.22;4863723;29;20052;-69
2023/10/04 06:00:30;;;;;;;15.52;7.05;;;;;;;16.80;59.02;98469.53;4863915;29;20048;-69
2023/10/04 06:03:06;;;;;;;15.18;7.03;;;;;;;16.48;59.08;98446.31;4863763;29;20052;-68
2023/10/04 06:05:37;;;;;;;15.20;7.88;;;;;;;16.20;59.36;98460.22;4863685;29;20534;-69
2023/10/04 06:08:11;;;;;;;13.20;8.07;;;;;;;16.07;59.88;98454.53;4846816;29;20053;-68
2023/10/04 06:10:36;;;;;;;16.05;8.23;;;;;;;15.89;59.90;98445.88;4846188;29;20053;-68
2023/10/04 06:13:02;;;;;;;14.48;7.43;;;;;;;15.69;60.81;98444.59;4863187;29;20048;-68
2023/10/04 06:15:29;;;;;;;16.52;7.85;;;;;;;15.73;61.09;98451.28;4862103;29;20412;-67
2023/10/04 06:17:56;;;;;;;15.80;7.47;;;;;;;15.58;60.84;98430.47;4862182;29;20060;-68
2023/10/04 06:20:28;;;;;;;16.88;7.63;;;;;;;15.59;61.23;98424.09;4863265;29;20044;-68
2023/10/04 06:23:05;;;;;;;16.17;7.43;;;;;;;15.66;61.53;98442.25;4861743;29;20854;-71
2023/10/04 06:25:30;;;;;;;16.30;7.30;;;;;;;15.78;61.02;98424.75;4863726;29;20055;-66
2023/10/04 06:27:57;;;;;;;16.05;7.75;;;;;;;15.85;60.86;98433.78;4863436;29;20044;-69
2023/10/04 06:30:27;;;;;;;17.27;6.97;;;;;;;15.93;60.38;98409.56;4862295;29;20036;-69
2023/10/04 06:32:58;;;;;;;14.55;7.75;;;;;;;15.84;60.35;98410.59;4845735;29;20078;-69
2023/10/04 06:35:24;;;;;;;13.95;7.50;;;;;;;15.80;60.23;98391.28;4861247;29;20056;-69
2023/10/04 06:38:00;;;;;;;17.48;7.55;;;;;;;15.76;60.75;98386.47;4862324;29;20048;-69
2023/10/04 06:40:27;;;;;;;10.45;5.25;;;;;;;15.87;60.63;98392.28;4845765;29;20543;-70
2023/10/04 06:42:55;;;;;;;9.82;5.97;;;;;;;15.97;59.77;98389.41;4862492;29;20052;-68
2023/10/04 06:45:23;;;;;;;13.60;6.93;;;;;;;15.99;59.78;98403.50;4862229;29;20033;-68
2023/10/04 06:47:50;;;;;;;18.02;7.00;;;;;;;15.93;59.64;98371.94;4861023;29;20134;-68
2023/10/04 06:50:32;;;;;;;19.90;7.95;;;;;;;16.03;59.52;98383.31;4862123;29;20047;-69
2023/10/04 06:52:58;;;;;;;18.42;7.18;;;;;;;16.17;59.41;98379.06;4861975;29;20048;-68
2023/10/04 06:55:24;;;;;;;23.23;8.95;;;;;;;16.12;58.76;98376.91;4861045;29;20048;-70
2023/10/04 06:57:49;;;;;;;15.55;7.32;;;;;;;16.24;58.84;98374.66;4862021;29;20075;-72
2023/10/04 07:00:18;;;;;;;12.88;5.80;;;;;;;16.39;58.87;98358.59;4845543;29;20427;-71
2023/10/04 07:02:47;;;;;;;14.38;7.68;;;;;;;16.22;58.52;98372.16;4862484;29;20048;-71
2023/10/04 07:05:15;;;;;;;15.70;7.57;;;;;;;16.23;58.57;98368.44;4862576;29;20429;-70
2023/10/04 07:07:42;;;;;;;18.13;8.00;;;;;;;16.14;58.69;98379.44;4861311;29;20051;-71
2023/10/04 07:10:09;;;;;;;18.73;8.20;;;;;;;16.14;58.97;98366.78;4862748;29;20066;-71
2023/10/04 07:12:34;;;;;;;20.58;8.93;;;;;;;16.19;58.42;98355.53;4863016;29;20044;-72
2023/10/04 07:15:00;;;;;;;15.90;8.75;;;;;;;16.28;58.12;98359.84;4862518;29;20071;-72
2023/10/04 07:17:29;;;;;;;18.40;7.57;;;;;;;16.10;58.64;98345.81;4845073;29;20063;-74
2023/10/04 07:19:57;;;;;;;16.58;7.75;;;;;;;16.15;58.39;98328.13;4862300;29;20036;-71
2023/10/04 07:22:29;;;;;;;17.80;7.93;;;;;;;16.11;58.45;98348.34;4862590;29;20056;-71
2023/10/04 07:24:54;;;;;;;16.20;8.30;;;;;;;16.11;59.08;98353.72;4860666;29;20049;-72
2023/10/04 07:27:19;;;;;;;17.45;7.20;;;;;;;16.26;58.64;98335.81;4861038;29;20049;-71
2023/10/04 07:29:45;;;;;;;11.93;6.85;;;;;;;16.45;58.19;98334.53;4862388;29;20052;-72
2023/10/04 07:32:11;;;;;;;19.13;8.43;;;;;;;16.61;57.56;98338.94;4862234;29;20053;-72
2023/10/04 07:34:37;;;;;;;13.77;7.40;;;;;;;16.75;56.99;98326.59;4845606;29;20055;-71
2023/10/04 07:37:03;;;;;;;17.67;7.70;;;;;;;16.65;57.39;98340.28;4861827;29;20064;-73
2023/10/04 07:39:28;;;;;;;22.85;9.15;;;;;;;16.67;56.67;98339.09;4861978;29;20452;-73
2023/10/04 07:41:54;;;;;;;19.90;8.05;;;;;;;16.67;56.67;98324.81;4859739;29;20055;-73
2023/10/04 07:44:20;;;;;;;18.23;8.75;;;;;;;16.74;56.54;98323.06;4861551;29;20048;-73
2023/10/04 07:46:45;;;;;;;16.63;7.47;;;;;;;17.05;56.13;98325.63;4861605;29;20052;-73
2023/10/04 07:49:10;;;;;;;17.15;8.98;;;;;;;17.23;55.49;98312.69;4844507;29;20075;-71
2023/10/04 07:51:35;;;;;;;17.95;8.77;;;;;;;17.50;54.72;98308.50;4843838;29;20424;-73
2023/10/04 07:54:01;;;;;;;16.92;6.85;;;;;;;17.68;54.21;98318.94;4868646;29;20207;-72
2023/10/04 07:56:28;;;;;;;23.63;8.30;;;;;;;17.34;53.69;98300.63;4874836;29;20070;-72
2023/10/04 07:58:53;;;;;;;21.25;8.88;;;;;;;17.26;54.08;98285.38;4891717;29;20048;-73
2023/10/04 08:01:18;;;;;;;16.08;7.80;;;;;;;17.08;55.11;98289.44;4881882;29;20051;-74
2023/10/04 08:03:43;;;;;;;20.73;8.38;;;;;;;17.15;54.83;98302.00;4878764;29;20048;-73
2023/10/04 08:06:11;;;;;;;18.42;8.32;;;;;;;17.12;54.94;98293.44;4862854;29;20865;-73
2023/10/04 08:08:36;;;;;;;17.10;7.55;;;;;;;17.05;55.15;98299.53;4880109;29;20044;-75
2023/10/04 08:11:03;;;;;;;12.10;6.97;;;;;;;17.04;55.15;98291.69;4878581;29;20040;-75
2023/10/04 08:13:28;;;;;;;16.63;7.78;;;;;;;17.08;55.19;98297.50;4862704;29;20707;-73
2023/10/04 08:15:53;;;;;;;17.20;7.45;;;;;;;17.12;55.49;98298.84;4879739;29;20047;-73
2023/10/04 08:18:23;;;;;;;15.77;7.25;;;;;;;17.14;55.33;98324.56;4879560;29;20508;-74
2023/10/04 08:20:48;;;;;;;15.43;7.32;;;;;;;17.19;54.55;98299.75;4866799;29;20048;-73
2023/10/04 08:23:15;;;;;;;15.20;8.32;;;;;;;17.28;54.68;98298.66;4859510;29;20412;-74
2023/10/04 08:25:40;;;;;;;9.82;5.38;;;;;;;17.44;53.90;98282.31;4860725;29;20057;-73
2023/10/04 08:28:09;;;;;;;14.10;7.32;;;;;;;17.32;54.08;98295.41;4860830;29;20044;-73
2023/10/04 08:30:38;;;;;;;17.83;8.35;;;;;;;17.27;54.50;98291.59;4859651;29;20055;-73
2023/10/04 08:33:03;;;;;;;20.25;8.18;;;;;;;17.46;54.26;98290.22;4860498;29;20041;-71
2023/10/04 08:35:29;;;;;;;18.52;7.30;;;;;;;17.85;53.45;98279.97;4843777;29;20048;-72
2023/10/04 08:38:00;;;;;;;14.95;7.90;;;;;;;18.29;52.53;98282.53;4860417;29;20055;-72
2023/10/04 08:40:27;;;;;;;18.65;8.05;;;;;;;18.78;50.81;98282.63;4859621;29;20049;-72
2023/10/04 08:42:53;;;;;;;17.00;7.72;;;;;;;19.24;49.48;98263.25;4860813;29;20059;-72
2023/10/04 08:45:19;;;;;;;12.38;7.45;;;;;;;19.86;49.05;98292.09;4864590;29;20048;-71
2023/10/04 08:47:51;;;;;;;15.50;7.68;;;;;;;20.45;47.58;98270.66;4868360;29;20064;-73
2023/10/04 08:50:34;;;;;;;14.80;8.02;;;;;;;20.79;45.84;98263.38;4869143;29;20053;-71
2023/10/04 08:53:26;;;;;;;12.80;7.03;;;;;;;21.34;45.58;98254.81;4860048;29;20120;-72
2023/10/04 08:55:56;;;;;;;16.10;7.93;;;;;;;21.76;44.20;98247.19;4862140;29;20056;-71
2023/10/04 08:58:22;;;;;;;10.05;5.75;;;;;;;22.90;42.14;98221.88;4864158;29;20060;-72
2023/10/04 09:00:50;;;;;;;17.27;8.75;;;;;;;23.06;40.67;98222.13;4864407;29;20044;-72
2023/10/04 09:03:19;;;;;;;14.63;8.18;;;;;;;23.42;39.95;98239.53;4864049;29;20059;-72
2023/10/04 09:05:50;;;;;;;16.42;7.25;;;;;;;23.76;39.13;98202.75;4864472;29;20412;-71
2023/10/04 09:08:16;;;;;;;16.90;7.45;;;;;;;23.67;39.06;98220.47;4863953;29;20353;-71
2023/10/04 09:10:42;;;;;;;19.58;9.05;;;;;;;23.46;39.00;98222.56;4862926;29;20056;-72
2023/10/04 09:13:09;;;;;;;13.85;7.78;;;;;;;23.92;38.56;98215.75;4863710;29;20044;-72
2023/10/04 09:15:35;;;;;;;15.25;9.18;;;;;;;24.37;37.38;98194.38;4864704;29;20055;-72
2023/10/04 09:18:03;;;;;;;18.73;8.50;;;;;;;25.12;36.80;98210.13;4848808;29;20059;-72
2023/10/04 09:20:35;;;;;;;16.02;10.40;;;;;;;24.87;35.61;98207.59;4864163;29;20048;-72
2023/10/04 09:23:02;;;;;;;11.68;7.70;;;;;;;25.45;35.62;98183.06;4863995;29;20500;-73
2023/10/04 09:25:38;;;;;;;21.52;8.73;;;;;;;26.11;34.87;98184.41;4863945;29;20051;-72
2023/10/04 09:28:04;;;;;;;14.25;8.68;;;;;;;26.07;34.03;98174.22;4846880;29;20083;-71
2023/10/04 09:30:34;;;;;;;15.85;9.20;;;;;;;25.77;34.34;98185.38;4864239;29;20772;-73
2023/10/04 09:32:59;;;;;;;14.93;8.43;;;;;;;26.20;33.84;98185.66;4862737;29;20049;-72
2023/10/04 09:35:41;;;;;;;15.32;7.68;;;;;;;26.36;33.76;98189.53;4847210;29;20052;-73
2023/10/04 09:38:16;;;;;;;13.30;7.45;;;;;;;26.53;33.76;98192.28;4863335;29;20058;-73
2023/10/04 09:40:59;;;;;;;15.65;7.80;;;;;;;26.85;34.03;98201.59;4863740;29;20048;-73
2023/10/04 09:43:36;;;;;;;19.63;8.20;;;;;;;26.35;34.18;98194.16;4862647;29;20044;-73
2023/10/04 09:46:09;;;;;;;15.25;8.38;;;;;;;25.91;34.15;98186.75;4863674;29;20504;-68
2023/10/04 09:48:37;;;;;;;17.80;9.25;;;;;;;26.06;34.25;98189.78;4846626;29;20146;-68
2023/10/04 09:51:05;;;;;;;22.40;9.07;;;;;;;26.29;33.78;98184.25;4863413;29;20045;-68
2023/10/04 09:53:31;;;;;;;22.33;9.15;;;;;;;26.26;33.83;98162.84;4863339;29;20043;-68
2023/10/04 09:56:04;;;;;;;20.15;8.52;;;;;;;26.30;33.64;98168.66;4863353;29;20071;-69
2023/10/04 09:58:31;;;;;;;14.73;7.97;;;;;;;25.97;34.08;98163.91;4863579;29;20881;-68
2023/10/04 10:01:03;;;;;;;14.13;8.35;;;;;;;27.28;32.31;98150.81;4863644;29;20116;-68
2023/10/04 10:03:36;;;;;;;22.30;8.85;;;;;;;28.14;30.61;98157.31;4863401;29;20036;-74
2023/10/04 10:06:03;;;;;;;14.63;8.17;;;;;;;27.97;30.78;98151.13;4862334;29;20055;-72
2023/10/04 10:08:32;;;;;;;19.25;9.05;;;;;;;26.97;31.57;98176.91;4862200;29;20808;-72
2023/10/04 10:11:00;;;;;;;16.52;9.23;;;;;;;25.51;33.82;98178.53;4863286;29;20052;-72
2023/10/04 10:13:26;;;;;;;17.35;8.35;;;;;;;24.78;35.28;98182.59;4863211;29;20052;-72
2023/10/04 10:15:53;;;;;;;19.58;8.63;;;;;;;24.01;36.70;98198.03;4863302;29;20060;-70
2023/10/04 10:18:18;;;;;;;12.30;7.22;;;;;;;23.72;38.00;98190.66;4862297;29;20408;-69
2023/10/04 10:20:43;;;;;;;15.43;8.90;;;;;;;23.23;38.50;98167.16;4861442;29;20048;-70
2023/10/04 10:23:13;;;;;;;13.38;7.40;;;;;;;22.97;38.71;98206.31;4860643;29;20099;-72
2023/10/04 10:25:39;;;;;;;17.73;9.88;;;;;;;21.72;41.54;98186.25;4863135;29;20504;-71
2023/10/04 10:28:18;;;;;;;12.90;7.60;;;;;;;21.46;42.50;98194.50;4862696;29;20052;-71
2023/10/04 10:30:43;;;;;;;15.35;9.13;;;;;;;20.85;43.78;98186.72;4862613;29;20056;-67
2023/10/04 10:33:12;;;;;;;15.25;8.98;;;;;;;20.79;43.94;98185.66;4863337;29;20758;-68
2023/10/04 10:35:50;;;;;;;18.90;8.10;;;;;;;20.59;44.42;98199.22;4862844;29;20048;-68
2023/10/04 10:38:40;;;;;;;15.73;8.18;;;;;;;20.27;45.56;98202.72;4842562;29;20524;-68
2023/10/04 10:41:29;;;;;;;19.85;9.23;;;;;;;19.90;46.11;98204.94;4862647;29;20052;-69
2023/10/04 10:44:19;;;;;;;17.20;8.48;;;;;;;19.77;47.12;98212.16;4845046;29;20048;-68
2023/10/04 10:47:08;;;;;;;17.60;8.73;;;;;;;19.54;47.86;98217.88;4845822;29;20056;-70
2023/10/04 10:49:36;;;;;;;18.42;8.90;;;;;;;19.40;47.77;98205.34;4848046;29;20436;-68
2023/10/04 10:52:02;;;;;;;23.60;8.55;;;;;;;19.40;47.64;98238.59;4845640;29;20067;-67
2023/10/04 10:54:28;;;;;;;19.00;9.63;;;;;;;19.27;48.24;98216.91;4846235;29;20056;-67
2023/10/04 10:56:53;;;;;;;20.50;8.30;;;;;;;19.14;48.75;98224.94;4862309;29;20064;-69
2023/10/04 10:59:18;;;;;;;17.10;8.20;;;;;;;18.94;49.29;98227.50;4860059;29;20051;-69
2023/10/04 11:01:43;;;;;;;20.05;8.82;;;;;;;18.89;49.35;98224.56;4861134;29;20054;-72
2023/10/04 11:04:09;;;;;;;18.02;9.05;;;;;;;18.83;49.51;98212.69;4862553;29;20411;-69
2023/10/04 11:06:35;;;;;;;28.23;9.68;;;;;;;18.74;50.30;98234.59;4845639;29;20064;-70
2023/10/04 11:09:01;;;;;;;17.65;7.93;;;;;;;18.75;50.33;98238.97;4862351;29;20063;-72
2023/10/04 11:11:26;;;;;;;25.02;10.07;;;;;;;18.77;50.01;98231.53;4862214;29;20051;-72
2023/10/04 11:13:53;;;;;;;19.45;8.88;;;;;;;18.73;50.03;98251.88;4862280;29;20048;-71
2023/10/04 11:16:21;;;;;;;24.48;9.02;;;;;;;18.55;50.84;98217.19;4844482;29;20074;-72
2023/10/04 11:18:47;;;;;;;20.38;10.18;;;;;;;18.38;51.70;98248.19;4862495;29;20049;-72
2023/10/04 11:21:13;;;;;;;19.75;10.27;;;;;;;18.30;52.01;98259.09;4862161;29;20044;-76
2023/10/04 11:23:39;;;;;;;15.57;8.68;;;;;;;18.22;52.78;98262.75;4861185;29;20052;-75
2023/10/04 11:26:06;;;;;;;18.65;8.90;;;;;;;18.10;53.47;98291.25;4862015;29;20078;-75
2023/10/04 11:28:32;;;;;;;19.33;7.00;;;;;;;18.22;52.75;98281.66;4859103;29;20052;-71
2023/10/04 11:30:58;;;;;;;24.15;8.88;;;;;;;18.17;53.08;98276.00;4861933;29;20063;-72
2023/10/04 11:33:23;;;;;;;21.58;8.52;;;;;;;18.14;53.27;98301.50;4858892;29;20055;-72